Time;durP1;ratioP1;P1;durP2;ratioP2;P2;SDS_P1;SDS_P2;PMS_P1;PMS_P2;Temp;Humidity;BMP_temperature;BMP_pressure;BME280_temperature;BME280_humidity;BME280_pressure;Samples;Min_cycle;Max_cycle;Signal;HPM_P1;HPM_P2
2021/06/15 00:02:10;;;;;;;8.90;3.70;;;;;;;21.40;48.92;96850.63;5051424;28;20275;-70
2021/06/15 00:04:35;;;;;;;4.70;3.80;;;;;;;21.37;49.14;96857.19;5039415;28;20253;-70
2021/06/15 00:07:01;;;;;;;4.63;4.00;;;;;;;21.39;48.92;96848.97;5054272;28;20236;-70
2021/06/15 00:09:26;;;;;;;5.13;3.73;;;;;;;21.27;49.46;96857.78;5050595;28;20202;-70
2021/06/15 00:11:52;;;;;;;4.67;3.70;;;;;;;21.28;49.14;96853.25;5049027;28;20183;-70
2021/06/15 00:14:17;;;;;;;6.73;4.10;;;;;;;21.28;49.18;96848.75;5051931;28;20183;-70
2021/06/15 00:16:43;;;;;;;6.83;4.17;;;;;;;21.29;49.18;96845.03;5053818;28;20225;-70
2021/06/15 00:19:09;;;;;;;4.10;3.70;;;;;;;21.26;49.55;96845.50;5053769;28;20183;-70
2021/06/15 00:21:34;;;;;;;4.40;3.80;;;;;;;21.21;49.35;96840.03;5050463;28;20187;-70
2021/06/15 00:24:00;;;;;;;6.40;4.50;;;;;;;20.91;49.97;96835.59;5052430;28;20179;-70
2021/06/15 00:26:25;;;;;;;6.33;4.07;;;;;;;20.62;51.29;96848.66;5053825;28;20195;-70
2021/06/15 00:28:51;;;;;;;4.57;4.17;;;;;;;20.53;50.87;96842.81;5054398;28;20187;-70
2021/06/15 00:31:18;;;;;;;5.70;4.00;;;;;;;20.37;51.64;96844.25;5053114;28;20241;-70
2021/06/15 00:33:44;;;;;;;8.00;4.43;;;;;;;20.44;51.03;96838.84;5053444;28;20198;-70
2021/06/15 00:36:10;;;;;;;6.47;4.07;;;;;;;20.44;51.32;96844.19;5053847;28;20457;-70
2021/06/15 00:38:35;;;;;;;5.40;4.27;;;;;;;20.49;51.12;96840.84;5053884;28;20328;-71
2021/06/15 00:41:01;;;;;;;4.70;4.23;;;;;;;20.49;50.95;96840.84;5053043;28;20238;-70
2021/06/15 00:43:26;;;;;;;6.50;4.33;;;;;;;20.50;51.18;96839.81;5051338;28;20595;-71
2021/06/15 00:45:52;;;;;;;6.00;4.50;;;;;;;20.56;50.97;96842.38;5054885;28;20213;-69
2021/06/15 00:48:31;;;;;;;8.70;4.80;;;;;;;20.61;50.70;96832.88;5053640;28;20186;-70
2021/06/15 00:50:57;;;;;;;12.07;4.80;;;;;;;20.64;50.75;96835.94;5054106;28;20187;-69
2021/06/15 00:53:22;;;;;;;6.00;3.77;;;;;;;20.66;50.61;96828.53;5054222;28;20979;-71
2021/06/15 00:55:49;;;;;;;6.20;3.93;;;;;;;20.56;50.90;96831.72;5053122;28;20445;-70
2021/06/15 00:58:15;;;;;;;11.43;4.13;;;;;;;20.41;51.14;96826.00;5054355;28;20191;-70
2021/06/15 01:00:40;;;;;;;6.50;4.00;;;;;;;20.43;51.08;96831.91;5045926;28;20517;-70
2021/06/15 01:03:06;;;;;;;4.23;3.60;;;;;;;20.42;50.97;96831.06;5053326;28;20194;-69
2021/06/15 01:05:32;;;;;;;5.00;4.47;;;;;;;20.35;51.03;96822.38;5052933;28;20203;-70
2021/06/15 01:08:21;;;;;;;4.90;4.17;;;;;;;20.39;51.20;96820.06;5053298;28;20603;-70
2021/06/15 01:11:07;;;;;;;5.73;4.20;;;;;;;20.41;51.10;96826.78;5041659;28;20194;-70
2021/06/15 01:14:10;;;;;;;13.90;4.60;;;;;;;20.37;51.23;96825.63;5038691;28;20815;-70
2021/06/15 01:17:09;;;;;;;10.20;4.40;;;;;;;20.33;51.18;96821.78;5040359;28;20475;-69
2021/06/15 01:19:47;;;;;;;7.40;4.70;;;;;;;20.29;51.31;96817.13;5043798;28;20803;-69
2021/06/15 01:22:47;;;;;;;4.80;4.30;;;;;;;20.20;51.50;96811.31;5051749;28;20444;-71
2021/06/15 01:25:12;;;;;;;12.33;5.00;;;;;;;19.88;52.65;96824.78;5050950;28;20481;-70
2021/06/15 01:27:42;;;;;;;7.33;4.33;;;;;;;19.84;52.86;96812.91;5052881;28;20439;-70
2021/06/15 01:30:11;;;;;;;6.60;4.10;;;;;;;19.99;52.32;96821.38;5042952;28;20187;-70
2021/06/15 01:32:37;;;;;;;4.57;4.17;;;;;;;20.01;52.03;96819.31;5050593;28;20459;-70
2021/06/15 01:35:06;;;;;;;7.73;5.20;;;;;;;20.02;52.07;96812.13;5050400;28;20445;-70
2021/06/15 01:37:38;;;;;;;6.40;3.83;;;;;;;20.05;51.90;96817.81;5052151;28;20433;-70
2021/06/15 01:40:13;;;;;;;8.73;4.43;;;;;;;20.03;52.16;96814.59;5049854;28;20442;-70
2021/06/15 01:42:53;;;;;;;5.23;4.30;;;;;;;20.02;52.27;96810.31;5049391;28;20429;-70
2021/06/15 01:45:21;;;;;;;6.07;4.20;;;;;;;20.02;52.07;96812.97;5050228;28;20450;-70
2021/06/15 01:48:05;;;;;;;9.00;4.20;;;;;;;20.01;52.07;96805.19;5050253;28;21166;-70
2021/06/15 01:50:37;;;;;;;5.50;4.60;;;;;;;19.95;52.07;96805.06;5051652;28;20451;-71
2021/06/15 01:53:07;;;;;;;8.47;4.63;;;;;;;20.00;52.15;96803.56;5051667;28;20461;-70
2021/06/15 01:55:34;;;;;;;5.80;4.10;;;;;;;20.03;52.20;96811.09;5051387;28;20479;-70
2021/06/15 01:58:01;;;;;;;6.10;4.27;;;;;;;20.01;52.02;96806.00;5051282;28;20483;-69
2021/06/15 02:00:27;;;;;;;6.60;4.77;;;;;;;19.98;51.93;96803.78;5051278;28;20524;-70
2021/06/15 02:02:53;;;;;;;4.67;4.20;;;;;;;20.01;51.98;96802.53;5050654;28;20555;-69
2021/06/15 02:05:24;;;;;;;6.43;4.80;;;;;;;19.97;51.95;96807.50;5049743;28;20701;-70
2021/06/15 02:07:50;;;;;;;7.87;4.53;;;;;;;19.95;51.91;96804.22;5049895;28;20203;-69
2021/06/15 02:10:17;;;;;;;6.07;3.90;;;;;;;19.90;51.95;96806.75;5051564;28;20429;-69
2021/06/15 02:12:46;;;;;;;7.50;4.53;;;;;;;19.83;52.36;96808.63;5047556;28;20203;-70
2021/06/15 02:15:16;;;;;;;5.13;4.63;;;;;;;19.82;52.21;96809.66;5049792;28;20468;-70
2021/06/15 02:17:47;;;;;;;6.43;4.40;;;;;;;19.77;52.47;96808.50;5051067;28;20512;-70
2021/06/15 02:20:14;;;;;;;5.00;4.30;;;;;;;19.79;52.58;96805.59;5049368;28;20426;-70
2021/06/15 02:22:48;;;;;;;5.03;4.00;;;;;;;19.77;52.44;96813.81;5045340;28;20421;-70
2021/06/15 02:25:19;;;;;;;5.23;4.30;;;;;;;19.77;52.65;96803.19;5049899;28;21033;-70
2021/06/15 02:27:45;;;;;;;7.40;4.70;;;;;;;19.68;53.27;96801.03;5049279;28;20786;-70
2021/06/15 02:30:12;;;;;;;5.63;5.10;;;;;;;19.67;53.25;96797.53;5050130;28;20456;-70
2021/06/15 02:32:38;;;;;;;6.60;4.50;;;;;;;19.65;53.51;96794.31;5051271;28;20446;-70
2021/06/15 02:35:09;;;;;;;6.80;4.80;;;;;;;19.61;53.58;96787.81;5050653;28;20467;-70
2021/06/15 02:37:46;;;;;;;6.80;5.00;;;;;;;19.59;53.69;96793.34;5050901;28;20920;-70
2021/06/15 02:40:14;;;;;;;5.37;4.57;;;;;;;19.54;53.81;96793.19;5049665;28;20468;-70
2021/06/15 02:42:43;;;;;;;6.17;4.27;;;;;;;19.53;53.88;96786.25;5047404;28;21010;-70
2021/06/15 02:45:09;;;;;;;6.93;4.73;;;;;;;19.48;54.13;96789.56;5048700;28;20445;-69
2021/06/15 02:47:36;;;;;;;5.80;4.27;;;;;;;19.45;54.10;96789.19;5050719;28;20425;-70
2021/06/15 02:50:04;;;;;;;7.63;5.03;;;;;;;19.42;54.08;96793.09;5043424;28;20668;-70
2021/06/15 02:52:47;;;;;;;7.70;4.80;;;;;;;19.38;53.89;96791.91;5043972;28;20538;-70
2021/06/15 02:55:32;;;;;;;10.63;5.30;;;;;;;19.33;53.90;96797.06;5047038;28;20441;-70
2021/06/15 02:57:59;;;;;;;35.80;10.50;;;;;;;19.30;53.98;96797.47;5050633;28;20801;-70
2021/06/15 03:00:25;;;;;;;26.00;8.93;;;;;;;19.26;54.12;96785.69;5043614;28;20896;-70
2021/06/15 03:02:50;;;;;;;7.73;5.50;;;;;;;19.23;54.01;96786.13;5051180;28;20524;-69
2021/06/15 03:05:19;;;;;;;8.80;4.60;;;;;;;19.26;54.04;96785.69;5043605;28;20298;-70
2021/06/15 03:07:45;;;;;;;8.33;5.97;;;;;;;19.26;54.13;96798.97;5045422;28;20191;-71
2021/06/15 03:10:11;;;;;;;6.27;5.20;;;;;;;19.26;54.19;96791.00;5052871;28;20513;-69
2021/06/15 03:13:08;;;;;;;6.00;4.70;;;;;;;19.28;53.99;96799.56;5049346;28;20560;-70
2021/06/15 03:15:46;;;;;;;6.60;4.63;;;;;;;19.27;53.96;96797.94;5032348;28;20255;-69
2021/06/15 03:18:27;;;;;;;9.57;4.93;;;;;;;19.20;53.85;96798.00;5049994;28;20461;-71
2021/06/15 03:20:56;;;;;;;6.13;4.67;;;;;;;19.17;53.91;96804.53;5045586;28;20436;-69
2021/06/15 03:23:33;;;;;;;6.33;5.20;;;;;;;19.11;54.20;96804.59;5048335;28;20995;-70
2021/06/15 03:26:04;;;;;;;7.07;5.33;;;;;;;19.11;54.48;96800.09;5051226;28;20882;-70
2021/06/15 03:28:31;;;;;;;7.87;5.50;;;;;;;19.06;54.65;96793.81;5044552;28;20437;-69
2021/06/15 03:30:57;;;;;;;6.53;5.00;;;;;;;19.06;54.65;96801.78;5036364;28;20433;-70
2021/06/15 03:33:22;;;;;;;11.27;5.27;;;;;;;19.05;54.93;96800.16;5043064;28;20459;-70
2021/06/15 03:35:51;;;;;;;5.20;4.70;;;;;;;18.94;55.41;96793.69;5040662;28;20613;-70
2021/06/15 03:38:17;;;;;;;12.43;7.73;;;;;;;19.00;55.15;96798.97;5048460;28;20552;-71
2021/06/15 03:40:52;;;;;;;9.30;5.40;;;;;;;19.04;55.35;96794.03;5048118;28;20441;-71
2021/06/15 03:43:19;;;;;;;9.33;6.60;;;;;;;19.05;55.08;96790.34;5048718;28;20433;-70
2021/06/15 03:45:51;;;;;;;10.80;5.40;;;;;;;18.99;55.45;96791.22;5049413;28;20551;-70
2021/06/15 03:48:17;;;;;;;8.93;5.13;;;;;;;18.92;55.60;96796.56;5048463;28;20421;-71
2021/06/15 03:50:43;;;;;;;8.33;4.60;;;;;;;18.77;56.03;96796.88;5049536;28;20433;-70
2021/06/15 03:53:11;;;;;;;7.10;4.50;;;;;;;18.87;55.63;96799.84;5048678;28;20453;-70
2021/06/15 03:55:38;;;;;;;8.67;4.90;;;;;;;19.05;55.28;96800.97;5050316;28;20226;-70
2021/06/15 03:58:07;;;;;;;12.70;4.70;;;;;;;19.10;54.80;96795.81;5031987;28;20951;-70
2021/06/15 04:00:34;;;;;;;7.30;4.90;;;;;;;19.18;54.45;96800.84;5051316;28;20487;-71
2021/06/15 04:03:01;;;;;;;6.00;4.80;;;;;;;19.22;54.11;96800.44;5053651;28;20810;-72
2021/06/15 04:05:28;;;;;;;10.20;4.40;;;;;;;19.23;53.84;96800.19;5051878;28;20441;-69
2021/06/15 04:07:56;;;;;;;9.30;4.87;;;;;;;19.23;53.67;96802.06;5052354;28;20432;-70
2021/06/15 04:10:23;;;;;;;10.00;4.80;;;;;;;19.37;53.37;96797.44;5053244;28;20417;-71
2021/06/15 04:12:50;;;;;;;11.93;4.53;;;;;;;19.45;53.00;96811.25;5053816;28;20975;-71
2021/06/15 04:15:16;;;;;;;5.70;4.00;;;;;;;19.59;52.36;96805.81;5051795;28;20449;-70
2021/06/15 04:17:51;;;;;;;9.63;4.40;;;;;;;19.72;51.86;96807.53;5051724;28;20922;-70
2021/06/15 04:20:37;;;;;;;11.77;4.40;;;;;;;19.83;51.10;96812.13;5053525;28;20198;-70
2021/06/15 04:23:07;;;;;;;8.23;4.40;;;;;;;19.97;50.82;96812.81;5047582;28;20508;-70
2021/06/15 04:25:37;;;;;;;6.27;4.37;;;;;;;20.07;50.48;96806.97;5053097;28;20846;-69
2021/06/15 04:28:04;;;;;;;7.87;4.13;;;;;;;20.20;49.56;96808.66;5052060;28;20436;-69
2021/06/15 04:30:30;;;;;;;8.37;4.43;;;;;;;20.29;49.50;96815.28;5050774;28;20449;-69
2021/06/15 04:33:03;;;;;;;5.97;3.60;;;;;;;20.45;49.00;96818.34;5053367;28;21070;-70
2021/06/15 04:35:33;;;;;;;4.50;3.77;;;;;;;20.60;48.35;96812.66;5021022;28;20839;-69
2021/06/15 04:38:07;;;;;;;7.53;3.80;;;;;;;20.72;48.17;96811.63;5051921;28;20424;-69
2021/06/15 04:40:38;;;;;;;5.67;3.90;;;;;;;20.89;47.68;96808.38;5038853;28;20518;-69
2021/06/15 04:43:44;;;;;;;5.47;4.07;;;;;;;21.00;47.63;96812.06;5051708;28;20426;-70
2021/06/15 04:46:31;;;;;;;14.93;4.00;;;;;;;21.12;47.21;96810.25;5051093;28;20955;-69
2021/06/15 04:49:08;;;;;;;6.60;3.90;;;;;;;21.28;46.67;96805.28;5052849;28;20784;-69
2021/06/15 04:51:34;;;;;;;5.40;4.07;;;;;;;21.42;46.32;96814.69;5039109;28;20512;-69
2021/06/15 04:54:00;;;;;;;4.80;3.83;;;;;;;21.49;46.40;96827.91;5041406;28;20542;-69
2021/06/15 04:56:28;;;;;;;10.30;3.83;;;;;;;21.66;46.29;96817.38;5051101;28;20203;-69
2021/06/15 04:58:54;;;;;;;9.23;4.37;;;;;;;21.75;45.87;96809.84;5053061;28;20418;-70
2021/06/15 05:01:20;;;;;;;11.50;3.97;;;;;;;21.87;46.27;96818.63;5051578;28;20475;-71
2021/06/15 05:03:45;;;;;;;11.87;3.80;;;;;;;21.99;45.69;96817.78;5051701;28;20190;-70
2021/06/15 05:06:11;;;;;;;6.00;3.73;;;;;;;22.08;45.34;96817.19;5036246;28;20496;-70
2021/06/15 05:08:45;;;;;;;4.63;3.40;;;;;;;22.18;45.03;96823.78;5051611;28;20265;-70
2021/06/15 05:11:12;;;;;;;6.70;3.83;;;;;;;22.29;44.91;96824.81;5052095;28;20182;-70
2021/06/15 05:13:40;;;;;;;4.73;3.63;;;;;;;22.40;45.18;96821.28;5051513;28;20461;-70
2021/06/15 05:16:08;;;;;;;8.70;4.53;;;;;;;22.54;44.79;96821.84;5052120;28;20468;-70
2021/06/15 05:18:35;;;;;;;9.43;4.00;;;;;;;22.68;44.50;96822.38;5052433;28;20434;-70
2021/06/15 05:21:05;;;;;;;6.20;3.77;;;;;;;22.82;44.12;96821.00;5047149;28;20415;-71
2021/06/15 05:23:39;;;;;;;4.03;3.30;;;;;;;23.00;43.48;96829.84;5050013;28;20539;-70
2021/06/15 05:26:05;;;;;;;11.33;3.80;;;;;;;23.08;43.16;96828.66;5051997;28;20437;-71
2021/06/15 05:28:30;;;;;;;5.70;3.50;;;;;;;23.18;43.08;96831.50;5051295;28;20492;-70
2021/06/15 05:30:56;;;;;;;9.20;3.50;;;;;;;23.47;42.71;96828.75;5032899;28;20187;-69
2021/06/15 05:33:22;;;;;;;9.27;3.40;;;;;;;23.69;42.31;96836.81;5050664;28;20256;-69
2021/06/15 05:35:47;;;;;;;6.87;3.50;;;;;;;23.76;42.03;96832.13;5052938;28;20217;-69
2021/06/15 05:38:14;;;;;;;5.83;3.30;;;;;;;23.96;41.36;96838.81;5048097;28;20206;-69
2021/06/15 05:40:40;;;;;;;5.43;3.40;;;;;;;24.09;40.61;96835.00;5039032;28;20270;-69
2021/06/15 05:43:05;;;;;;;3.90;3.13;;;;;;;23.93;40.14;96826.72;5052381;28;20453;-68
2021/06/15 05:45:31;;;;;;;9.07;3.23;;;;;;;24.15;39.72;96833.19;5051605;28;20238;-70
2021/06/15 05:47:56;;;;;;;9.00;3.57;;;;;;;24.32;39.43;96836.59;5052384;28;20187;-70
2021/06/15 05:50:22;;;;;;;5.20;3.40;;;;;;;24.47;39.51;96843.19;5050843;28;20175;-70
2021/06/15 05:52:49;;;;;;;6.10;3.50;;;;;;;24.66;39.31;96832.94;5049825;28;20211;-69
2021/06/15 05:55:14;;;;;;;7.33;3.57;;;;;;;24.83;39.18;96833.69;5050252;28;20446;-69
2021/06/15 05:57:40;;;;;;;3.97;3.20;;;;;;;25.03;38.80;96832.25;5051105;28;20452;-69
2021/06/15 06:00:07;;;;;;;4.47;3.20;;;;;;;25.27;37.95;96832.72;5051893;28;20569;-68
2021/06/15 06:02:33;;;;;;;5.90;3.40;;;;;;;25.41;37.60;96835.00;5052208;28;20413;-68
2021/06/15 06:10:22;;;;;;;3.50;3.20;;;;;;;25.76;37.30;96834.44;5050869;28;20266;-69
2021/06/15 06:12:48;;;;;;;8.27;4.03;;;;;;;26.04;36.65;96832.41;5055892;28;20558;-69
2021/06/15 06:15:16;;;;;;;10.43;3.73;;;;;;;25.33;37.77;96846.97;5067683;28;20584;-68
2021/06/15 06:17:42;;;;;;;6.17;3.80;;;;;;;25.31;37.72;96843.75;5068929;28;20182;-70
2021/06/15 06:20:09;;;;;;;7.40;3.90;;;;;;;25.36;37.36;96846.47;5068581;28;20443;-70
2021/06/15 06:22:37;;;;;;;7.50;3.30;;;;;;;25.36;37.19;96842.97;5043256;28;20538;-70
2021/06/15 06:25:05;;;;;;;4.80;3.20;;;;;;;26.00;36.04;96841.25;5068437;28;20467;-69
2021/06/15 06:27:31;;;;;;;7.40;3.43;;;;;;;26.38;35.09;96839.28;5052495;28;20850;-69
2021/06/15 06:29:56;;;;;;;4.77;3.30;;;;;;;26.73;34.67;96835.09;5067896;28;20482;-70
2021/06/15 06:32:22;;;;;;;4.70;3.40;;;;;;;26.43;34.98;96835.81;5068189;28;20247;-70
2021/06/15 06:34:47;;;;;;;3.90;2.80;;;;;;;26.74;34.71;96836.69;5068086;28;20190;-70
2021/06/15 06:37:13;;;;;;;4.90;3.10;;;;;;;26.27;36.00;96843.84;5068063;28;20578;-70
2021/06/15 06:39:39;;;;;;;10.40;2.97;;;;;;;26.26;35.28;96841.41;5054449;28;20194;-70
2021/06/15 06:42:05;;;;;;;4.10;2.80;;;;;;;25.93;36.07;96841.50;5068504;28;20182;-70
2021/06/15 06:44:30;;;;;;;6.10;3.00;;;;;;;26.79;34.97;96842.13;5068192;28;20443;-70
2021/06/15 06:46:56;;;;;;;8.57;2.83;;;;;;;26.71;34.62;96839.13;5051706;28;20843;-69
2021/06/15 06:49:22;;;;;;;3.07;2.77;;;;;;;27.41;33.96;96844.84;5051236;28;20175;-70
2021/06/15 06:51:47;;;;;;;7.27;3.37;;;;;;;27.61;33.90;96842.44;5049461;28;20190;-70
2021/06/15 06:54:13;;;;;;;7.30;3.97;;;;;;;27.98;33.26;96842.06;5049642;28;20206;-69
2021/06/15 06:56:39;;;;;;;7.00;3.80;;;;;;;28.35;32.63;96840.88;5051231;28;20652;-70
2021/06/15 06:59:04;;;;;;;4.13;3.17;;;;;;;28.56;32.47;96840.78;5043147;28;20552;-72
2021/06/15 07:01:30;;;;;;;6.00;3.27;;;;;;;28.70;31.74;96834.78;5046148;28;20187;-70
2021/06/15 07:03:56;;;;;;;4.40;2.87;;;;;;;28.25;32.30;96846.31;5046609;28;20198;-71
2021/06/15 07:06:21;;;;;;;3.10;2.80;;;;;;;28.76;31.98;96841.78;5043130;28;20203;-70
2021/06/15 07:08:48;;;;;;;9.43;3.60;;;;;;;29.24;32.05;96839.28;5042502;28;20184;-70
2021/06/15 07:11:14;;;;;;;5.00;3.17;;;;;;;29.00;33.01;96847.28;5049937;28;20179;-70
2021/06/15 07:13:39;;;;;;;7.17;3.20;;;;;;;28.83;33.61;96845.00;5053452;28;20544;-70
2021/06/15 07:16:06;;;;;;;3.23;2.77;;;;;;;29.09;33.06;96850.22;5012706;28;20538;-70
2021/06/15 07:18:35;;;;;;;5.20;3.93;;;;;;;28.84;34.16;96843.91;5032342;28;20270;-69
2021/06/15 07:21:01;;;;;;;5.47;3.20;;;;;;;28.78;34.07;96850.41;5038410;28;20433;-70
2021/06/15 07:23:26;;;;;;;5.53;3.40;;;;;;;28.63;34.03;96849.38;5038334;28;20518;-69
2021/06/15 07:25:52;;;;;;;9.27;3.37;;;;;;;28.81;33.88;96842.56;5046252;28;20291;-70
2021/06/15 07:28:17;;;;;;;5.63;3.00;;;;;;;28.62;34.26;96841.56;5050543;28;20665;-71
2021/06/15 07:30:43;;;;;;;4.93;3.00;;;;;;;29.20;33.10;96838.25;5034230;28;20548;-69
2021/06/15 07:33:08;;;;;;;6.60;3.33;;;;;;;29.43;33.02;96846.72;5036157;28;20207;-69
2021/06/15 07:35:35;;;;;;;10.73;4.00;;;;;;;29.78;32.17;96847.44;5032241;28;20277;-69
2021/06/15 07:38:01;;;;;;;7.93;3.67;;;;;;;29.84;31.98;96840.09;5026434;28;20198;-70
2021/06/15 07:40:27;;;;;;;12.00;3.33;;;;;;;29.66;31.90;96850.56;5022113;28;20451;-68
2021/06/15 07:42:55;;;;;;;21.87;3.70;;;;;;;29.81;32.26;96838.78;5038298;28;20179;-69
2021/06/15 07:45:22;;;;;;;4.57;3.27;;;;;;;29.79;32.33;96843.66;5041009;28;20317;-68
2021/06/15 07:47:48;;;;;;;6.97;3.47;;;;;;;29.37;33.96;96847.84;5035169;28;20649;-69
2021/06/15 07:50:15;;;;;;;7.03;3.10;;;;;;;29.57;33.48;96853.06;5045560;28;20521;-69
2021/06/15 07:52:41;;;;;;;5.37;3.40;;;;;;;29.63;32.93;96851.13;5048119;28;20199;-68
2021/06/15 07:55:07;;;;;;;8.70;3.67;;;;;;;29.78;32.84;96849.38;5044421;28;20977;-70
2021/06/15 07:57:33;;;;;;;9.47;3.47;;;;;;;30.27;31.46;96851.00;5053976;28;20417;-70
2021/06/15 07:59:58;;;;;;;5.03;3.17;;;;;;;29.99;31.66;96836.47;5032751;28;20886;-68
2021/06/15 08:02:24;;;;;;;9.00;3.80;;;;;;;30.07;31.67;96843.94;5044410;28;20236;-69
2021/06/15 08:04:49;;;;;;;5.60;3.50;;;;;;;30.19;31.59;96844.34;5048453;28;20191;-70
2021/06/15 08:07:15;;;;;;;6.00;3.20;;;;;;;29.38;32.37;96849.44;5032938;28;20186;-69
2021/06/15 08:09:41;;;;;;;6.80;3.63;;;;;;;29.80;32.03;96852.59;5047792;28;20677;-70
2021/06/15 08:12:07;;;;;;;15.03;11.90;;;;;;;30.31;31.43;96848.50;5051042;28;20187;-69
2021/06/15 08:14:32;;;;;;;7.63;3.27;;;;;;;30.67;30.03;96839.97;5047097;28;20287;-69
2021/06/15 08:16:58;;;;;;;5.10;3.07;;;;;;;31.02;29.72;96840.53;5031628;28;20208;-69
2021/06/15 08:19:24;;;;;;;3.97;2.83;;;;;;;30.38;30.06;96840.84;5036973;28;20715;-69
2021/06/15 08:21:50;;;;;;;5.90;3.00;;;;;;;30.26;30.69;96845.88;5043427;28;20445;-69
2021/06/15 08:24:16;;;;;;;7.00;2.80;;;;;;;30.76;29.35;96845.53;5043279;28;20266;-68
2021/06/15 08:26:43;;;;;;;6.93;3.30;;;;;;;30.97;29.16;96842.50;5047800;28;20221;-70
2021/06/15 08:29:08;;;;;;;9.77;3.20;;;;;;;30.64;29.66;96840.53;5048282;28;20423;-69
2021/06/15 08:31:34;;;;;;;5.97;2.70;;;;;;;30.57;29.01;96849.00;5019640;28;20433;-70
2021/06/15 08:33:59;;;;;;;3.57;2.90;;;;;;;31.13;28.44;96843.91;5043483;28;20303;-69
2021/06/15 08:36:25;;;;;;;5.10;3.13;;;;;;;31.05;27.76;96845.34;5046361;28;20635;-69
2021/06/15 08:38:51;;;;;;;4.10;2.60;;;;;;;30.99;28.58;96856.53;5039052;28;20264;-68
2021/06/15 08:41:18;;;;;;;4.57;3.47;;;;;;;30.29;29.77;96853.41;5046060;28;20210;-71
2021/06/15 08:43:44;;;;;;;4.80;3.00;;;;;;;30.62;29.28;96856.28;5036804;28;20207;-68
2021/06/15 08:46:12;;;;;;;5.83;3.30;;;;;;;30.62;28.77;96843.53;5029634;28;20486;-69
2021/06/15 08:48:37;;;;;;;6.47;3.10;;;;;;;31.15;28.67;96843.59;5027610;28;20415;-70
2021/06/15 08:51:03;;;;;;;6.40;3.00;;;;;;;30.46;29.48;96856.44;5025046;28;20431;-70
2021/06/15 08:53:36;;;;;;;8.00;3.70;;;;;;;31.12;28.37;96855.00;5034508;28;20693;-69
2021/06/15 08:56:22;;;;;;;3.97;3.57;;;;;;;29.85;29.63;96855.22;5047208;28;20521;-68
2021/06/15 08:59:00;;;;;;;8.70;2.93;;;;;;;30.29;29.89;96848.81;5029108;28;20474;-68
2021/06/15 09:01:26;;;;;;;5.83;3.50;;;;;;;29.53;30.69;96856.63;5038656;28;20433;-70
2021/06/15 09:03:53;;;;;;;6.20;3.10;;;;;;;30.62;29.43;96848.94;5032787;28;20429;-66
2021/06/15 09:06:19;;;;;;;6.70;3.17;;;;;;;30.87;28.98;96844.28;5039696;28;20250;-70
2021/06/15 09:08:53;;;;;;;5.40;3.70;;;;;;;31.19;28.55;96850.03;5029992;28;20918;-71
2021/06/15 09:11:19;;;;;;;6.03;3.00;;;;;;;31.28;27.86;96844.78;5043265;28;20457;-71
2021/06/15 09:13:46;;;;;;;6.97;3.37;;;;;;;31.24;28.05;96848.06;5036919;28;20455;-70
2021/06/15 09:16:35;;;;;;;8.30;3.20;;;;;;;31.09;28.19;96846.38;5041460;28;20453;-71
2021/06/15 09:19:14;;;;;;;7.13;3.00;;;;;;;31.10;28.22;96848.00;5040038;28;20422;-70
2021/06/15 09:21:41;;;;;;;7.70;2.97;;;;;;;30.89;27.95;96849.38;5038693;28;20422;-69
2021/06/15 09:24:27;;;;;;;10.23;3.27;;;;;;;31.02;28.18;96851.34;5032932;28;20547;-69
2021/06/15 09:27:09;;;;;;;3.07;2.77;;;;;;;31.22;27.76;96852.16;5039113;28;20501;-69
2021/06/15 09:29:42;;;;;;;8.30;3.07;;;;;;;31.58;27.21;96862.38;5036606;28;20425;-69
2021/06/15 09:32:10;;;;;;;12.20;3.80;;;;;;;31.34;27.46;96863.34;5039801;28;20443;-68
2021/06/15 09:34:35;;;;;;;5.20;3.00;;;;;;;31.29;27.16;96860.69;5029271;28;20428;-70
2021/06/15 09:37:05;;;;;;;7.63;3.23;;;;;;;31.74;26.55;96860.25;5037040;28;20446;-69
2021/06/15 09:39:32;;;;;;;7.10;3.27;;;;;;;30.12;29.26;96865.47;5033134;28;20232;-72
2021/06/15 09:41:58;;;;;;;3.43;3.03;;;;;;;30.46;28.97;96864.53;5041581;28;20427;-69
2021/06/15 09:44:26;;;;;;;6.73;3.27;;;;;;;31.17;27.88;96857.66;5035229;28;20414;-68
2021/06/15 09:46:59;;;;;;;5.00;3.37;;;;;;;30.50;29.03;96867.47;5044706;28;20226;-70
2021/06/15 09:49:32;;;;;;;7.77;3.07;;;;;;;30.46;28.45;96869.94;5030354;28;20446;-69
2021/06/15 09:52:27;;;;;;;6.80;3.37;;;;;;;31.05;28.35;96864.28;5040942;28;20436;-69
2021/06/15 09:54:55;;;;;;;6.00;3.10;;;;;;;31.76;27.17;96868.88;5031074;28;20882;-69
2021/06/15 09:57:23;;;;;;;6.97;3.00;;;;;;;29.80;29.37;96877.69;5046771;28;20746;-69
2021/06/15 10:00:03;;;;;;;4.53;3.00;;;;;;;30.42;28.64;96873.53;5042756;28;20439;-68
2021/06/15 10:02:29;;;;;;;10.57;2.80;;;;;;;31.00;27.73;96877.09;5048543;28;20437;-69
2021/06/15 10:04:55;;;;;;;7.97;2.87;;;;;;;31.47;26.35;96871.78;5045908;28;20426;-69
2021/06/15 10:07:28;;;;;;;4.00;2.57;;;;;;;31.76;25.81;96874.28;5047855;28;20196;-68
2021/06/15 10:09:55;;;;;;;5.10;2.90;;;;;;;31.94;25.04;96867.19;5035838;28;20420;-69
2021/06/15 10:12:22;;;;;;;4.00;2.87;;;;;;;32.84;23.90;96865.94;5050131;28;20496;-68
2021/06/15 10:14:48;;;;;;;3.20;2.40;;;;;;;31.29;25.46;96874.22;5042744;28;20468;-69
2021/06/15 10:17:14;;;;;;;5.00;2.40;;;;;;;31.74;25.32;96875.69;5041776;28;20852;-68
2021/06/15 10:19:40;;;;;;;8.40;2.77;;;;;;;30.66;26.68;96876.19;5029524;28;20179;-70
2021/06/15 10:22:07;;;;;;;9.87;2.90;;;;;;;31.79;26.13;96864.75;5037550;28;20183;-69
2021/06/15 10:24:34;;;;;;;3.70;2.40;;;;;;;32.18;24.91;96871.59;5043326;28;20505;-69
2021/06/15 10:27:00;;;;;;;11.13;2.57;;;;;;;32.64;24.39;96864.47;5040325;28;20449;-70
2021/06/15 10:29:27;;;;;;;5.83;2.67;;;;;;;32.27;25.16;96872.53;5051290;28;20425;-69
2021/06/15 10:31:55;;;;;;;8.67;2.80;;;;;;;32.72;24.38;96861.00;5042810;28;20237;-70
2021/06/15 10:34:50;;;;;;;6.07;2.90;;;;;;;32.36;24.57;96863.69;5044967;28;20499;-67
2021/06/15 10:37:39;;;;;;;3.20;2.77;;;;;;;32.12;24.92;96865.47;5045586;28;20448;-69
2021/06/15 10:40:14;;;;;;;4.37;2.57;;;;;;;31.94;24.44;96863.69;5042403;28;20578;-69
2021/06/15 10:42:41;;;;;;;2.60;2.40;;;;;;;32.59;23.96;96857.25;5050921;28;20432;-69
2021/06/15 10:45:13;;;;;;;6.77;2.70;;;;;;;33.06;23.40;96856.22;5040089;28;20428;-70
2021/06/15 10:48:04;;;;;;;7.70;2.40;;;;;;;33.03;23.79;96851.41;5041408;28;20489;-69
2021/06/15 10:50:45;;;;;;;4.03;2.60;;;;;;;32.56;24.60;96849.72;5048149;28;20488;-68
2021/06/15 10:53:12;;;;;;;6.03;2.23;;;;;;;33.09;23.55;96853.69;5040969;28;20953;-69
2021/06/15 10:56:01;;;;;;;4.70;2.80;;;;;;;33.07;23.44;96847.78;5050411;28;20437;-68
2021/06/15 10:58:36;;;;;;;5.60;2.30;;;;;;;32.95;23.63;96852.13;5043522;28;20481;-69
2021/06/15 11:01:22;;;;;;;3.00;2.27;;;;;;;31.35;25.72;96858.72;5044532;28;20433;-69
2021/06/15 11:03:51;;;;;;;6.70;2.80;;;;;;;31.81;24.80;96855.25;5047653;28;20433;-69
2021/06/15 11:06:38;;;;;;;2.90;2.33;;;;;;;31.66;25.26;96847.38;5046872;28;20449;-70
2021/06/15 11:09:03;;;;;;;2.97;2.13;;;;;;;31.13;25.38;96848.53;5035863;28;20446;-70
2021/06/15 11:11:30;;;;;;;6.10;2.33;;;;;;;32.16;24.24;96833.97;5037080;28;20421;-69
2021/06/15 11:14:04;;;;;;;4.10;2.53;;;;;;;32.49;23.58;96835.78;5047176;28;20260;-68
2021/06/15 11:16:32;;;;;;;3.50;2.07;;;;;;;33.03;23.02;96843.25;5040899;28;20444;-69
2021/06/15 11:19:11;;;;;;;3.83;2.40;;;;;;;33.66;22.55;96848.78;5037103;28;20431;-69
2021/06/15 11:21:55;;;;;;;7.30;2.60;;;;;;;32.41;24.12;96845.44;5038267;28;20426;-68
2021/06/15 11:24:45;;;;;;;5.23;2.10;;;;;;;31.93;24.19;96849.31;5043814;28;20790;-68
2021/06/15 11:27:16;;;;;;;8.13;3.07;;;;;;;32.37;23.96;96840.91;5038694;28;20431;-68
2021/06/15 11:29:43;;;;;;;2.53;2.20;;;;;;;32.10;23.46;96845.22;5047301;28;20516;-69
2021/06/15 11:32:28;;;;;;;6.03;2.73;;;;;;;32.60;23.31;96839.88;5042942;28;20425;-68
2021/06/15 11:35:01;;;;;;;3.47;2.30;;;;;;;32.81;23.16;96842.13;5040881;28;20451;-69
2021/06/15 11:37:34;;;;;;;9.10;3.20;;;;;;;33.56;22.45;96835.47;5043802;28;20453;-68
2021/06/15 11:40:08;;;;;;;4.67;2.60;;;;;;;34.70;20.71;96835.88;5041378;28;20437;-68
2021/06/15 11:42:34;;;;;;;3.57;2.60;;;;;;;34.69;20.56;96834.28;5049315;28;20421;-70
2021/06/15 11:45:29;;;;;;;3.50;2.17;;;;;;;34.59;20.51;96840.81;5048700;28;20424;-68
2021/06/15 11:47:56;;;;;;;4.83;2.10;;;;;;;34.52;20.07;96837.78;5035240;28;20271;-68
2021/06/15 11:50:26;;;;;;;2.53;2.30;;;;;;;34.76;20.21;96837.31;5046603;28;20588;-69